createdAt,value
2018-03-06T00:00:43.129Z,11.93
2018-03-06T00:03:11.420Z,13.40
2018-03-06T00:05:39.752Z,13.02
2018-03-06T00:08:08.062Z,12.32
2018-03-06T00:10:36.397Z,11.83
2018-03-06T00:13:04.700Z,13.12
2018-03-06T00:15:32.265Z,11.73
2018-03-06T00:18:00.568Z,12.62
2018-03-06T00:20:28.897Z,13.60
2018-03-06T00:22:57.210Z,11.75
2018-03-06T00:25:25.543Z,11.83
2018-03-06T00:27:53.847Z,11.00
2018-03-06T00:30:22.168Z,15.70
2018-03-06T00:32:50.478Z,34.20
2018-03-06T00:35:18.813Z,10.63
2018-03-06T00:37:47.116Z,13.40
2018-03-06T00:40:15.451Z,13.62
2018-03-06T00:42:43.756Z,13.55
2018-03-06T00:45:12.080Z,13.78
2018-03-06T00:47:40.384Z,12.62
2018-03-06T00:50:08.741Z,12.58
2018-03-06T00:52:37.052Z,11.77
2018-03-06T00:55:05.403Z,11.87
2018-03-06T00:57:33.710Z,13.03
2018-03-06T01:00:02.020Z,10.67
2018-03-06T01:02:30.340Z,12.92
2018-03-06T01:04:58.657Z,13.83
2018-03-06T01:07:26.976Z,11.27
2018-03-06T01:09:55.272Z,12.03
2018-03-06T01:12:23.608Z,12.43
2018-03-06T01:14:51.923Z,13.83
2018-03-06T01:17:19.502Z,11.17
2018-03-06T01:19:47.813Z,12.98
2018-03-06T01:22:16.142Z,11.95
2018-03-06T01:24:44.452Z,12.85
2018-03-06T01:27:12.777Z,11.08
2018-03-06T01:29:41.092Z,14.20
2018-03-06T01:32:09.428Z,12.18
2018-03-06T01:34:37.745Z,12.48
2018-03-06T01:37:06.093Z,16.92
2018-03-06T01:39:34.409Z,17.32
2018-03-06T01:42:02.741Z,13.10
2018-03-06T01:44:31.047Z,14.05
2018-03-06T01:46:59.378Z,11.82
2018-03-06T01:49:27.686Z,10.32
2018-03-06T01:51:58.756Z,11.67
2018-03-06T01:54:27.063Z,11.23
2018-03-06T01:56:55.396Z,13.47
2018-03-06T01:59:23.702Z,12.05
2018-03-06T02:01:52.040Z,11.93
2018-03-06T02:04:20.341Z,14.07
2018-03-06T02:06:48.668Z,11.57
2018-03-06T02:09:16.980Z,10.12
2018-03-06T02:11:45.309Z,13.28
2018-03-06T02:14:12.848Z,12.13
2018-03-06T02:16:41.177Z,9.45
2018-03-06T02:19:09.488Z,16.42
2018-03-06T02:21:37.053Z,14.88
2018-03-06T02:24:05.364Z,8.97
2018-03-06T02:26:33.689Z,10.68
2018-03-06T02:29:01.992Z,11.10
2018-03-06T02:31:30.320Z,15.30
2018-03-06T02:33:58.634Z,13.62
2018-03-06T02:36:26.960Z,10.82
2018-03-06T02:38:55.264Z,9.90
2018-03-06T02:41:23.597Z,10.92
2018-03-06T02:43:51.891Z,12.33
2018-03-06T02:46:20.229Z,12.63
2018-03-06T02:48:48.556Z,10.72
2018-03-06T02:51:16.860Z,10.12
2018-03-06T02:53:45.192Z,12.45
2018-03-06T02:56:12.736Z,10.00
2018-03-06T02:58:41.062Z,11.15
2018-03-06T03:01:09.361Z,9.87
2018-03-06T03:03:37.684Z,9.67
2018-03-06T03:06:05.988Z,13.43
2018-03-06T03:08:34.311Z,16.25
2018-03-06T03:11:02.621Z,11.73
2018-03-06T03:13:30.943Z,11.55
2018-03-06T03:15:59.245Z,11.75
2018-03-06T03:18:27.577Z,11.82
2018-03-06T03:20:55.885Z,12.27
2018-03-06T03:23:24.213Z,9.50
2018-03-06T03:25:52.517Z,8.57
2018-03-06T03:28:20.853Z,12.57
2018-03-06T03:30:49.162Z,13.42
2018-03-06T03:33:17.488Z,11.23
2018-03-06T03:35:45.800Z,16.30
2018-03-06T03:38:14.135Z,24.75
2018-03-06T03:40:42.439Z,13.73
2018-03-06T03:43:10.765Z,13.62
2018-03-06T03:45:39.056Z,12.50
2018-03-06T03:48:07.384Z,12.13
2018-03-06T03:50:35.691Z,10.57
2018-03-06T03:53:03.257Z,11.57
2018-03-06T03:55:31.561Z,14.02
2018-03-06T03:57:59.884Z,11.85
2018-03-06T04:00:28.193Z,11.75
2018-03-06T04:02:56.519Z,12.13
2018-03-06T04:05:24.815Z,15.83
2018-03-06T04:07:53.140Z,12.52
2018-03-06T04:10:21.447Z,14.17
2018-03-06T04:12:49.769Z,13.77
2018-03-06T04:15:18.082Z,11.08
2018-03-06T04:17:46.417Z,11.37
2018-03-06T04:20:14.729Z,16.85
2018-03-06T04:22:43.051Z,12.85
2018-03-06T04:25:11.361Z,11.62
2018-03-06T04:27:39.693Z,12.08
2018-03-06T04:30:08.001Z,15.02
2018-03-06T04:32:36.304Z,12.63
2018-03-06T04:35:04.631Z,16.10
2018-03-06T04:37:32.945Z,18.87
2018-03-06T04:40:01.288Z,18.37
2018-03-06T04:42:29.584Z,19.43
2018-03-06T04:44:57.932Z,17.98
2018-03-06T04:47:25.462Z,13.30
2018-03-06T04:49:53.787Z,12.72
2018-03-06T04:52:22.091Z,15.42
2018-03-06T04:54:50.415Z,18.75
2018-03-06T04:57:18.728Z,16.32
2018-03-06T04:59:47.052Z,11.85
2018-03-06T05:02:15.364Z,16.08
2018-03-06T05:04:43.702Z,20.72
2018-03-06T05:07:12.004Z,20.43
2018-03-06T05:09:40.340Z,22.05
2018-03-06T05:12:08.641Z,24.53
2018-03-06T05:14:36.968Z,18.00
2018-03-06T05:17:05.277Z,18.40
2018-03-06T05:19:33.605Z,15.10
2018-03-06T05:22:01.924Z,16.90
2018-03-06T05:24:30.245Z,15.28
2018-03-06T05:26:57.792Z,17.30
2018-03-06T05:29:26.127Z,19.48
2018-03-06T05:31:54.441Z,15.33
2018-03-06T05:34:22.772Z,14.92
2018-03-06T05:36:51.085Z,14.70
2018-03-06T05:39:19.407Z,18.33
2018-03-06T05:41:47.720Z,27.83
2018-03-06T05:44:16.052Z,22.03
2018-03-06T05:46:44.359Z,20.05
2018-03-06T05:49:12.689Z,15.32
2018-03-06T05:51:40.997Z,20.57
2018-03-06T05:54:09.327Z,23.00
2018-03-06T05:56:37.636Z,17.40
2018-03-06T05:59:05.969Z,21.32
2018-03-06T06:01:34.279Z,22.07
2018-03-06T06:04:02.608Z,24.03
2018-03-06T06:06:30.930Z,27.05
2018-03-06T06:08:59.264Z,27.98
2018-03-06T06:11:27.585Z,25.10
2018-03-06T06:13:55.892Z,26.35
2018-03-06T06:16:24.207Z,23.15
2018-03-06T06:18:52.503Z,23.22
2018-03-06T06:21:20.874Z,18.88
2018-03-06T06:23:49.136Z,26.43
2018-03-06T06:26:17.454Z,25.08
2018-03-06T06:28:45.748Z,25.33
2018-03-06T06:31:14.063Z,22.87
2018-03-06T06:33:42.361Z,25.00
2018-03-06T06:36:10.675Z,21.75
2018-03-06T06:38:38.976Z,21.48
2018-03-06T06:41:07.289Z,31.62
2018-03-06T06:43:35.589Z,23.62
2018-03-06T06:46:03.137Z,24.15
2018-03-06T06:48:31.432Z,22.52
2018-03-06T06:50:59.747Z,25.72
2018-03-06T06:53:28.036Z,27.35
2018-03-06T06:55:56.354Z,27.52
2018-03-06T06:58:24.648Z,29.43
2018-03-06T07:00:52.960Z,30.88
2018-03-06T07:03:21.259Z,24.47
2018-03-06T07:05:49.570Z,29.40
2018-03-06T07:08:17.864Z,30.38
2018-03-06T07:10:46.176Z,26.38
2018-03-06T07:13:14.474Z,22.43
2018-03-06T07:15:42.794Z,28.05
2018-03-06T07:18:11.087Z,22.72
2018-03-06T07:20:39.400Z,18.02
2018-03-06T07:23:07.693Z,16.70
2018-03-06T07:25:36.008Z,21.18
2018-03-06T07:28:04.305Z,15.38
2018-03-06T07:30:33.020Z,17.58
2018-03-06T07:33:01.317Z,17.38
2018-03-06T07:35:29.634Z,20.17
2018-03-06T07:37:57.928Z,17.28
2018-03-06T07:40:26.238Z,19.42
2018-03-06T07:42:54.532Z,17.57
2018-03-06T07:45:22.896Z,14.47
2018-03-06T07:47:51.152Z,15.07
2018-03-06T07:50:19.481Z,13.70
2018-03-06T07:52:47.781Z,12.93
2018-03-06T07:55:16.085Z,16.67
2018-03-06T07:57:44.402Z,14.02
2018-03-06T08:00:12.683Z,12.97
2018-03-06T08:02:40.988Z,13.75
2018-03-06T08:05:09.280Z,20.68
2018-03-06T08:07:37.592Z,20.07
2018-03-06T08:10:05.880Z,16.02
2018-03-06T08:12:34.200Z,19.13
2018-03-06T08:15:02.492Z,15.75
2018-03-06T08:17:30.809Z,13.08
2018-03-06T08:19:59.602Z,12.85
2018-03-06T08:22:27.917Z,16.65
2018-03-06T08:24:56.208Z,14.70
2018-03-06T08:27:24.524Z,13.03
2018-03-06T08:29:52.816Z,15.93
2018-03-06T08:32:21.129Z,12.08
2018-03-06T08:34:49.425Z,11.10
2018-03-06T08:37:17.745Z,14.10
2018-03-06T08:39:46.037Z,13.85
2018-03-06T08:42:14.354Z,12.57
2018-03-06T08:44:42.675Z,11.60
2018-03-06T08:47:11.064Z,12.20
2018-03-06T08:49:39.351Z,15.67
2018-03-06T08:52:07.656Z,13.87
2018-03-06T08:54:35.944Z,13.75
2018-03-06T08:57:04.266Z,13.78
2018-03-06T08:59:32.564Z,13.00
2018-03-06T09:02:00.121Z,14.18
2018-03-06T09:04:28.431Z,10.62
2018-03-06T09:06:56.748Z,15.22
2018-03-06T09:09:25.058Z,17.88
2018-03-06T09:11:53.377Z,13.13
2018-03-06T09:14:20.917Z,15.40
2018-03-06T09:16:49.236Z,12.45
2018-03-06T09:19:17.537Z,13.90
2018-03-06T09:21:45.094Z,20.68
2018-03-06T09:24:13.422Z,20.72
2018-03-06T09:26:41.745Z,17.08
2018-03-06T09:29:10.041Z,13.92
2018-03-06T09:31:38.365Z,16.04
2018-03-06T09:34:06.664Z,15.52
2018-03-06T09:36:34.989Z,19.74
2018-03-06T09:39:03.294Z,15.70
2018-03-06T09:41:31.601Z,16.20
2018-03-06T09:43:59.924Z,11.18
2018-03-06T09:46:27.456Z,14.52
2018-03-06T09:48:55.774Z,15.64
2018-03-06T09:51:24.075Z,14.60
2018-03-06T09:53:52.393Z,18.42
2018-03-06T09:56:20.697Z,16.28
2018-03-06T09:58:49.011Z,20.48
2018-03-06T10:01:17.307Z,19.84
2018-03-06T10:03:45.624Z,10.14
2018-03-06T10:06:13.930Z,10.28
2018-03-06T10:08:42.262Z,10.62
2018-03-06T10:11:10.562Z,7.02
2018-03-06T10:13:38.885Z,9.14
2018-03-06T10:16:07.180Z,11.22
2018-03-06T10:18:35.518Z,8.36
2018-03-06T10:21:03.820Z,9.28
2018-03-06T10:23:32.164Z,11.78
2018-03-06T10:26:00.500Z,8.80
2018-03-06T10:28:28.828Z,8.92
2018-03-06T10:30:57.135Z,11.86
2018-03-06T10:33:25.478Z,9.06
2018-03-06T10:35:53.777Z,8.92
2018-03-06T10:38:22.101Z,7.58
2018-03-06T10:40:50.397Z,8.74
2018-03-06T10:43:18.719Z,9.66
2018-03-06T10:45:47.025Z,11.80
2018-03-06T10:48:15.353Z,10.38
2018-03-06T10:50:43.666Z,11.72
2018-03-06T10:53:12.029Z,10.52
2018-03-06T10:55:39.538Z,8.58
2018-03-06T10:58:07.861Z,9.64
2018-03-06T11:00:41.770Z,11.26
2018-03-06T11:03:10.099Z,12.78
2018-03-06T11:05:38.398Z,12.08
2018-03-06T11:08:06.720Z,12.72
2018-03-06T11:10:35.024Z,10.02
2018-03-06T11:13:03.344Z,10.08
2018-03-06T11:15:31.640Z,14.38
2018-03-06T11:17:59.951Z,10.30
2018-03-06T11:20:28.247Z,10.96
2018-03-06T11:22:56.576Z,11.64
2018-03-06T11:25:24.871Z,10.94
2018-03-06T11:27:53.170Z,11.88
2018-03-06T11:30:21.482Z,14.22
2018-03-06T11:32:49.784Z,11.74
2018-03-06T11:35:18.115Z,10.74
2018-03-06T11:37:46.400Z,7.46
2018-03-06T11:40:14.717Z,9.28
2018-03-06T11:42:43.024Z,7.68
2018-03-06T11:45:11.345Z,6.92
2018-03-06T11:47:39.632Z,7.94
2018-03-06T11:50:07.948Z,6.48
2018-03-06T11:52:36.247Z,6.58
2018-03-06T11:55:03.796Z,7.28
2018-03-06T11:57:32.101Z,7.02
2018-03-06T12:00:00.411Z,8.76
2018-03-06T12:02:30.637Z,8.70
2018-03-06T12:04:58.952Z,5.42
2018-03-06T12:07:26.476Z,5.76
2018-03-06T12:09:54.785Z,7.04
2018-03-06T12:12:23.088Z,7.06
2018-03-06T12:14:50.635Z,6.02
2018-03-06T12:17:18.941Z,6.84
2018-03-06T12:19:47.252Z,6.80
2018-03-06T12:22:15.543Z,7.58
2018-03-06T12:24:43.866Z,10.08
2018-03-06T12:27:12.169Z,10.00
2018-03-06T12:29:40.472Z,9.72
2018-03-06T12:32:07.996Z,7.64
2018-03-06T12:34:36.316Z,7.36
2018-03-06T12:37:04.611Z,8.34
2018-03-06T12:39:32.933Z,8.44
2018-03-06T12:42:01.212Z,5.46
2018-03-06T12:44:29.527Z,5.52
2018-03-06T12:46:57.812Z,6.32
2018-03-06T12:49:26.137Z,6.18
2018-03-06T12:51:53.660Z,12.60
2018-03-06T12:54:21.976Z,6.44
2018-03-06T12:56:51.060Z,5.38
2018-03-06T12:59:19.380Z,7.10
2018-03-06T13:01:47.666Z,6.12
2018-03-06T13:04:15.980Z,6.40
2018-03-06T13:06:44.272Z,5.22
2018-03-06T13:09:12.613Z,5.50
2018-03-06T13:11:40.908Z,5.92
2018-03-06T13:14:09.200Z,4.72
2018-03-06T13:16:37.513Z,9.98
2018-03-06T13:19:05.812Z,7.02
2018-03-06T13:21:34.137Z,13.66
2018-03-06T13:24:02.443Z,7.40
2018-03-06T13:26:30.770Z,5.86
2018-03-06T13:28:59.076Z,9.50
2018-03-06T13:31:27.384Z,8.64
2018-03-06T13:33:55.674Z,6.88
2018-03-06T13:36:24.047Z,7.16
2018-03-06T13:38:52.310Z,6.10
2018-03-06T13:41:19.864Z,7.44
2018-03-06T13:43:48.152Z,7.18
2018-03-06T13:46:16.477Z,10.52
2018-03-06T13:48:44.008Z,10.00
2018-03-06T13:51:12.330Z,10.24
2018-03-06T13:53:40.633Z,10.44
2018-03-06T13:56:08.943Z,7.78
2018-03-06T13:58:49.347Z,9.38
2018-03-06T14:01:17.668Z,20.32
2018-03-06T14:03:45.969Z,10.86
2018-03-06T14:06:14.323Z,9.14
2018-03-06T14:08:42.631Z,40.28
2018-03-06T14:11:10.951Z,108.96
2018-03-06T14:13:39.248Z,95.26
2018-03-06T14:16:07.564Z,24.90
2018-03-06T14:18:35.865Z,15.46
2018-03-06T14:21:04.189Z,14.58
2018-03-06T14:23:32.508Z,19.30
2018-03-06T14:26:00.837Z,30.90
2018-03-06T14:28:29.140Z,15.84
2018-03-06T14:30:57.469Z,23.42
2018-03-06T14:33:25.780Z,13.30
2018-03-06T14:35:54.104Z,17.42
2018-03-06T14:38:22.405Z,17.70
2018-03-06T14:40:50.744Z,13.08
2018-03-06T14:43:19.039Z,13.10
2018-03-06T14:45:47.384Z,14.58
2018-03-06T14:48:15.684Z,11.10
2018-03-06T14:50:43.992Z,11.74
2018-03-06T14:53:12.296Z,11.62
2018-03-06T14:55:40.628Z,11.86
2018-03-06T14:58:08.926Z,11.64
2018-03-06T15:00:37.251Z,16.30
2018-03-06T15:03:05.546Z,14.22
2018-03-06T15:05:33.847Z,10.50
2018-03-06T15:08:02.173Z,20.42
2018-03-06T15:10:30.465Z,12.30
2018-03-06T15:12:58.779Z,12.24
2018-03-06T15:15:27.081Z,10.98
2018-03-06T15:17:55.394Z,11.10
2018-03-06T15:20:23.709Z,13.34
2018-03-06T15:22:52.028Z,12.26
2018-03-06T15:25:20.320Z,10.92
2018-03-06T15:27:48.632Z,11.14
2018-03-06T15:30:16.925Z,13.08
2018-03-06T15:32:44.476Z,12.34
2018-03-06T15:35:12.772Z,10.78
2018-03-06T15:37:41.088Z,15.50
2018-03-06T15:40:09.380Z,11.60
2018-03-06T15:42:37.699Z,10.46
2018-03-06T15:45:05.998Z,13.22
2018-03-06T15:47:34.315Z,11.30
2018-03-06T15:50:02.604Z,9.20
2018-03-06T15:52:30.157Z,11.42
2018-03-06T15:54:58.440Z,9.06
2018-03-06T15:57:26.790Z,8.88
2018-03-06T15:59:55.085Z,8.80
2018-03-06T16:02:23.402Z,6.86
2018-03-06T16:04:51.695Z,8.42
2018-03-06T16:07:20.008Z,5.70
2018-03-06T16:09:48.304Z,4.12
2018-03-06T16:12:15.851Z,5.44
2018-03-06T16:14:44.154Z,4.18
2018-03-06T16:17:12.479Z,3.60
2018-03-06T16:19:40.768Z,4.90
2018-03-06T16:22:08.320Z,4.16
2018-03-06T16:24:36.619Z,6.38
2018-03-06T16:27:04.936Z,4.10
2018-03-06T16:29:33.233Z,4.58
2018-03-06T16:32:01.557Z,4.92
2018-03-06T16:34:29.847Z,4.42
2018-03-06T16:36:58.157Z,5.48
2018-03-06T16:39:26.452Z,5.20
2018-03-06T16:41:54.753Z,8.24
2018-03-06T16:44:22.301Z,7.04
2018-03-06T16:46:50.597Z,11.94
2018-03-06T16:49:18.959Z,11.58
2018-03-06T16:51:47.232Z,9.96
2018-03-06T16:54:15.544Z,9.06
2018-03-06T16:56:43.845Z,9.36
2018-03-06T16:59:12.156Z,7.54
2018-03-06T17:01:40.460Z,7.48
2018-03-06T17:04:08.776Z,6.16
2018-03-06T17:06:37.064Z,5.92
2018-03-06T17:09:05.372Z,6.34
2018-03-06T17:11:33.678Z,5.64
2018-03-06T17:14:01.999Z,7.22
2018-03-06T17:16:30.288Z,6.10
2018-03-06T17:18:58.601Z,12.90
2018-03-06T17:21:26.893Z,6.66
2018-03-06T17:23:55.204Z,5.94
2018-03-06T17:26:23.504Z,6.56
2018-03-06T17:28:51.808Z,7.36
2018-03-06T17:31:20.105Z,7.10
2018-03-06T17:33:48.423Z,5.72
2018-03-06T17:36:16.720Z,34.84
2018-03-06T17:38:45.048Z,87.68
2018-03-06T17:41:12.585Z,25.44
2018-03-06T17:43:40.949Z,10.44
2018-03-06T17:46:08.436Z,7.72
2018-03-06T17:48:36.748Z,9.44
2018-03-06T17:51:05.056Z,10.90
2018-03-06T17:53:33.365Z,11.72
2018-03-06T17:56:01.666Z,20.72
2018-03-06T17:58:29.986Z,28.26
2018-03-06T18:00:58.294Z,24.76
2018-03-06T18:03:26.704Z,26.44
2018-03-06T18:05:55.017Z,29.85
2018-03-06T18:08:23.328Z,26.00
2018-03-06T18:10:51.639Z,17.85
2018-03-06T18:13:24.324Z,18.80
2018-03-06T18:15:52.679Z,17.64
2018-03-06T18:18:20.255Z,14.37
2018-03-06T18:20:48.588Z,11.63
2018-03-06T18:23:16.899Z,12.53
2018-03-06T18:25:45.243Z,14.38
2018-03-06T18:28:13.578Z,12.65
2018-03-06T18:30:41.955Z,11.50
2018-03-06T18:33:10.313Z,9.83
2018-03-06T18:35:38.793Z,9.88
2018-03-06T18:38:07.177Z,9.78
2018-03-06T18:40:35.661Z,10.87
2018-03-06T18:43:03.972Z,13.18
2018-03-06T18:45:32.288Z,13.22
2018-03-06T18:48:00.583Z,13.77
2018-03-06T18:50:40.712Z,12.65
2018-03-06T18:53:08.993Z,13.72
2018-03-06T18:55:37.312Z,9.78
2018-03-06T18:58:05.611Z,11.42
2018-03-06T19:00:59.533Z,11.87
2018-03-06T19:03:39.537Z,9.90
2018-03-06T19:06:19.698Z,10.67
2018-03-06T19:08:47.988Z,10.03
2018-03-06T19:11:16.333Z,9.75
2018-03-06T19:13:44.625Z,8.38
2018-03-06T19:16:12.168Z,9.47
2018-03-06T19:18:40.464Z,9.77
2018-03-06T19:21:08.850Z,8.60
2018-03-06T19:23:37.169Z,11.52
2018-03-06T19:26:05.484Z,9.67
2018-03-06T19:28:33.793Z,9.40
2018-03-06T19:31:02.150Z,9.42
2018-03-06T19:33:29.805Z,8.75
2018-03-06T19:35:58.138Z,10.60
2018-03-06T19:38:26.441Z,9.50
2018-03-06T19:40:54.768Z,10.37
2018-03-06T19:43:23.056Z,9.32
2018-03-06T19:45:51.433Z,14.22
2018-03-06T19:48:19.733Z,12.10
2018-03-06T19:50:48.108Z,14.33
2018-03-06T19:53:16.415Z,12.97
2018-03-06T19:55:44.748Z,12.35
2018-03-06T19:58:13.079Z,15.28
2018-03-06T20:00:41.397Z,14.48
2018-03-06T20:03:09.711Z,18.20
2018-03-06T20:05:38.029Z,13.17
2018-03-06T20:08:06.352Z,13.38
2018-03-06T20:10:34.698Z,17.97
2018-03-06T20:13:03.024Z,14.17
2018-03-06T20:15:31.338Z,18.15
2018-03-06T20:17:59.633Z,16.32
2018-03-06T20:20:27.951Z,15.22
2018-03-06T20:22:56.314Z,13.58
2018-03-06T20:25:30.349Z,11.32
2018-03-06T20:27:58.640Z,14.23
2018-03-06T20:30:32.765Z,13.55
2018-03-06T20:33:06.006Z,14.22
2018-03-06T20:35:34.348Z,12.87
2018-03-06T20:38:02.663Z,14.02
2018-03-06T20:40:34.021Z,13.08
2018-03-06T20:43:02.346Z,13.32
2018-03-06T20:45:35.646Z,13.98
2018-03-06T20:48:03.968Z,17.58
2018-03-06T20:50:32.276Z,43.62
2018-03-06T20:53:06.358Z,19.80
2018-03-06T20:55:34.712Z,14.12
2018-03-06T20:58:03.082Z,15.00
2018-03-06T21:00:31.364Z,9.57
2018-03-06T21:02:59.691Z,11.93
2018-03-06T21:05:28.102Z,10.67
2018-03-06T21:07:55.660Z,11.85
2018-03-06T21:10:23.952Z,12.52
2018-03-06T21:12:51.493Z,10.00
2018-03-06T21:15:19.788Z,14.57
2018-03-06T21:17:48.136Z,13.38
2018-03-06T21:20:16.428Z,13.37
2018-03-06T21:22:44.776Z,13.15
2018-03-06T21:25:13.070Z,11.42
2018-03-06T21:27:41.384Z,11.58
2018-03-06T21:30:09.673Z,13.43
2018-03-06T21:32:38.036Z,9.92
2018-03-06T21:35:06.330Z,14.05
2018-03-06T21:37:35.576Z,11.67
2018-03-06T21:40:03.878Z,13.50
2018-03-06T21:42:32.200Z,15.50
2018-03-06T21:45:00.494Z,14.08
2018-03-06T21:47:28.806Z,17.52
2018-03-06T21:49:57.092Z,12.42
2018-03-06T21:52:25.402Z,10.95
2018-03-06T21:54:53.701Z,11.88
2018-03-06T21:57:22.018Z,12.13
2018-03-06T21:59:50.303Z,11.18
2018-03-06T22:02:17.848Z,13.25
2018-03-06T22:04:46.140Z,12.85
2018-03-06T22:07:14.461Z,14.00
2018-03-06T22:09:42.752Z,13.07
2018-03-06T22:12:11.071Z,12.23
2018-03-06T22:14:39.360Z,15.73
2018-03-06T22:17:07.686Z,14.33
2018-03-06T22:19:35.984Z,14.43
2018-03-06T22:22:04.272Z,14.33
2018-03-06T22:24:32.588Z,13.80
2018-03-06T22:27:00.112Z,14.67
2018-03-06T22:29:28.425Z,12.00
2018-03-06T22:31:56.713Z,14.25
2018-03-06T22:34:25.024Z,16.25
2018-03-06T22:36:52.552Z,26.00
2018-03-06T22:39:20.874Z,16.52
2018-03-06T22:41:49.165Z,16.35
2018-03-06T22:44:17.476Z,18.25
2018-03-06T22:46:45.764Z,15.75
2018-03-06T22:49:14.077Z,15.47
2018-03-06T22:51:42.364Z,20.02
2018-03-06T22:54:10.673Z,13.93
2018-03-06T22:56:38.955Z,14.72
2018-03-06T22:59:07.298Z,17.20
2018-03-06T23:01:35.605Z,15.15
2018-03-06T23:04:03.928Z,12.42
2018-03-06T23:06:32.217Z,18.30
2018-03-06T23:09:00.524Z,16.98
2018-03-06T23:11:28.808Z,12.67
2018-03-06T23:13:57.117Z,19.23
2018-03-06T23:16:24.640Z,14.70
2018-03-06T23:18:52.948Z,18.93
2018-03-06T23:21:21.236Z,26.57
2018-03-06T23:23:49.552Z,20.35
2018-03-06T23:26:17.846Z,21.07
2018-03-06T23:28:46.153Z,21.20
2018-03-06T23:31:14.448Z,20.70
2018-03-06T23:33:42.754Z,19.60
2018-03-06T23:36:11.041Z,18.45
2018-03-06T23:38:39.357Z,19.40
2018-03-06T23:41:07.653Z,17.33
2018-03-06T23:43:35.967Z,22.73
2018-03-06T23:46:04.252Z,22.55
2018-03-06T23:48:33.380Z,20.10
2018-03-06T23:51:01.681Z,21.47
2018-03-06T23:53:29.985Z,22.70
2018-03-06T23:55:58.273Z,26.38
2018-03-06T23:58:26.586Z,19.12
